Airfield :
LOGIN :

Register | Disclaimer

   EN    FR    IT 

 










Legend :    VFR   Marginal VFR   IFR   Intensive IFR   Very Intensive IFR
Visi :
Ceiling :
>= 8 km
>= 3000ft
5 to 8 km
1000 to 3000 ft
1500m to 5 km
500 to 1000 ft
800 to 1500m
200 to 500 ft
< 800m
< 200 ft
Symbols :   Thunderstorms  Fog  Heavy snow  Heavy precipitations  Wind > 20 kt
SIGMETs :     Misc.  Thunderstorms  Icing  Turbulence  Mountain Waves  Volcanic Ashes






- Airport Elevation : 681 ft
- IATA code : LBA


EGNM - Leeds Bradford

CURRENT METAR :
  • 290920Z 03012KT 350V070 9999 FEW028 SCT040 04/M03 Q1043

EXPIRED METARs :
  • 290850Z 02012KT 9999 FEW020 SCT030 02/M01 Q1043
  • 290820Z 01012KT 9999 SCT040 02/M02 Q1043
  • 290750Z 01015KT 9999 SCT035 02/M01 Q1042
  • 290720Z 02009KT 9999 SCT030 02/M02 Q1042

TAF TAF EGNM
Valid from the 29 at 08:00 until the 29 at 16:00 UTC


290801Z 2908/2916 02012KT 9999 SCT030
TEMPO 2908/2916 03018G28KT
PROB30
TEMPO 2908/2915 6000 -SHRASN BKN014
ATIS : +44 113 250 9696 (x2489)



MET'MAP, your aeronautical weather chart ! - Copyright ORBIFLY December 2007 - Disclaimer

ORBIFLY MET'MAP TEAM :

Programming & Development : Alexandra Zaïnal
Concept & original design : Baudouin d'Aumeries
Assistance for programming : Marc-Olivier Méhu
Technical & hardware support : Manuel Goepfert

Contact : metmap@orbifly.com




SOURCES & CREDITS :

   NOAA